McAllen, TX

9:46 PM CDT on July 04, 2015 (GMT -0500)
McAllen Miller International | | Change Station
CLOSE
Current Station
Airport
Location: McAllen,
Elevation: 105 ft
Nearby Weather Stations

Elev 105 ft 26.18 °N, 98.24 °W | Updated 53 minutes ago

Clear
Clear
86 °F
Feels Like 92 °F
N
16
Wind Variable Wind from SE

Today
High -- | Low -- °F
--% Chance of Precip.
Yesterday
High -- | Low -- °F
Precip. -- in
6:45 AM 8:29 PM
Waning Gibbous, 88% visible
Pressure 29.91 in
Visibility 10.0 miles
Clouds Clear
Heat Index 92 °F
Dew Point 71 °F
Humidity 61%
Rainfall 0.00 in
Snow Depth Not available.
UV 0 out of 12
Pollen 3.80 out of 12
Air Quality Not available.
Flu Activity Not available.
METAR KMFE 050153Z 14014KT 10SM CLR 30/22 A2991 RMK AO2 SLP128 T03000217

More Conditions Fewer Conditions

Pressure 29.91 in
Visibility 10.0 miles
Clouds Clear
Heat Index 92 °F
Dew Point 71 °F
Humidity 61%
Rainfall 0.00 in
Snow Depth Not available.
UV 0 out of 12
Pollen 3.80 out of 12
Air Quality Not available.
Flu Activity Not available.
METAR KMFE 050153Z 14014KT 10SM CLR 30/22 A2991 RMK AO2 SLP128 T03000217

More Conditions Fewer Conditions

10-Day Weather Forecast

×

Almanac

Astronomy

Jul. 04, 2015 Rise Set
Actual Time
Civil Twilight
Nautical Twilight
Astronomical Twilight
Moon
Length of Visible Light
Length of Day
Tomorrow will be .
, % of the Moon is Illuminated

Today's Extremes

State Highs State Lows

Community

WunderPhotos

Upload Photos

1,835,172 photos uploaded!

WunderBlogs® & News

Nearby

Air Quality

  Air Quality AQ Index Pollutant
Not available.

Snow Depth

Station Depth Elevation

Earthquake Activity

City Distance Mag. Time & Date
Minimum magnitude displayed is 2.5.

Coastal Water Temperatures

Place Temperature

Stations

Nearby Weather Stations

Station Location Temp. Windchill Dew Point Humidity Wind Precip. Elev Updated Type